Time;durP1;ratioP1;P1;durP2;ratioP2;P2;SDS_P1;SDS_P2;PMS_P1;PMS_P2;Temp;Humidity;BMP_temperature;BMP_pressure;BME280_temperature;BME280_humidity;BME280_pressure;Samples;Min_cycle;Max_cycle;Signal;HPM_P1;HPM_P2
2022/01/12 00:01:23;;;;;;;9.37;6.37;;;1.70;74.00;;;2.22;59.47;99323.53;4964453;29;20241;-41
2022/01/12 00:03:51;;;;;;;11.57;6.80;;;1.70;74.00;;;2.22;59.06;99334.03;4964340;29;20357;-41
2022/01/12 00:06:19;;;;;;;11.53;6.60;;;1.70;73.40;;;2.23;59.56;99329.63;4963798;29;20051;-41
2022/01/12 00:08:48;;;;;;;11.40;6.67;;;1.80;73.10;;;2.22;59.41;99323.53;4962572;29;20057;-41
2022/01/12 00:11:17;;;;;;;13.33;7.37;;;1.80;73.40;;;2.22;59.47;99328.78;4964289;29;20059;-41
2022/01/12 00:13:45;;;;;;;13.87;8.93;;;1.80;73.40;;;2.22;59.49;99327.94;4964205;29;20051;-41
2022/01/12 00:16:13;;;;;;;11.47;6.97;;;1.70;73.20;;;2.20;59.36;99332.41;4963466;29;20053;-41
2022/01/12 00:18:42;;;;;;;9.67;6.50;;;1.70;73.30;;;2.16;59.04;99332.53;4963914;29;20061;-41
2022/01/12 00:21:10;;;;;;;8.77;5.60;;;1.70;73.60;;;2.15;59.61;99333.47;4963807;29;20241;-41
2022/01/12 00:23:40;;;;;;;9.47;5.53;;;1.70;73.40;;;2.11;59.01;99333.63;4964138;29;20053;-41
2022/01/12 00:26:12;;;;;;;10.03;5.93;;;1.60;73.50;;;2.00;59.35;99335.88;4964428;29;20077;-41
2022/01/12 00:34:25;;;;;;;7.40;5.77;;;1.40;74.90;;;1.84;59.43;99343.56;4946201;29;20051;-41
2022/01/12 00:36:53;;;;;;;8.57;5.33;;;1.30;75.10;;;1.80;59.45;99336.72;4963351;29;20257;-41
2022/01/12 00:39:22;;;;;;;9.13;6.13;;;1.30;75.10;;;1.78;59.88;99339.41;4962759;29;20047;-41
2022/01/12 00:41:50;;;;;;;8.30;5.80;;;1.30;75.60;;;1.79;59.84;99350.81;4945947;29;20051;-40
2022/01/12 00:44:32;;;;;;;9.00;5.37;;;1.30;75.40;;;1.75;60.12;99345.66;4965665;28;20234;-41
2022/01/12 00:47:00;;;;;;;9.80;6.73;;;1.30;75.60;;;1.70;60.09;99334.47;4967538;29;20047;-41
2022/01/12 00:49:28;;;;;;;9.37;6.53;;;1.20;75.30;;;1.64;59.75;99342.63;4967828;29;20047;-41
2022/01/12 00:51:56;;;;;;;11.90;6.57;;;1.10;76.20;;;1.58;59.68;99342.88;4966224;29;20334;-41
2022/01/12 00:54:25;;;;;;;9.73;6.73;;;1.00;76.40;;;1.51;60.22;99346.66;4966116;29;20097;-41
2022/01/12 00:56:53;;;;;;;9.80;6.20;;;0.90;77.10;;;1.48;60.21;99345.03;4967213;29;20069;-41
2022/01/12 00:59:22;;;;;;;12.83;6.40;;;0.90;77.20;;;1.46;60.58;99343.41;4950143;29;20061;-41
2022/01/12 01:01:55;;;;;;;;;;;0.90;77.20;;;1.40;60.90;99346.25;4968008;29;20043;-41
2022/01/12 01:04:26;;;;;;;7.30;5.63;;;0.80;77.50;;;1.37;60.36;99353.31;4967477;29;19954;-41
2022/01/12 01:06:57;;;;;;;9.53;5.80;;;0.80;77.90;;;1.34;60.62;99345.59;4966683;29;20249;-41
2022/01/12 01:09:25;;;;;;;9.57;5.80;;;0.80;77.60;;;1.32;60.52;99350.06;4967283;29;20047;-41
2022/01/12 01:11:56;;;;;;;11.20;6.57;;;0.80;77.60;;;1.29;60.37;99349.31;4949718;29;20249;-41
2022/01/12 01:14:45;;;;;;;9.47;6.20;;;0.80;78.00;;;1.26;60.87;99346.81;4949414;29;20349;-42
2022/01/12 01:25:47;;;;;;;9.67;6.40;;;0.60;78.70;;;1.10;61.07;99349.19;4949822;29;20070;-41
2022/01/12 01:28:17;;;;;;;11.27;6.77;;;0.60;78.30;;;1.05;61.02;99352.00;4965353;29;20067;-40
2022/01/12 01:30:46;;;;;;;8.60;6.67;;;0.60;79.00;;;1.08;60.63;99356.25;4942098;29;20059;-41
2022/01/12 01:33:17;;;;;;;10.00;6.33;;;0.60;79.20;;;1.07;61.05;99349.31;4967014;29;20051;-41
2022/01/12 01:35:53;;;;;;;10.63;7.17;;;0.60;78.80;;;1.05;60.82;99344.13;4967028;29;20046;-40
2022/01/12 01:38:24;;;;;;;10.43;7.17;;;0.60;79.10;;;1.04;61.63;99346.81;4966036;29;20058;-40
2022/01/12 01:40:53;;;;;;;9.77;6.30;;;0.60;78.90;;;1.05;61.04;99338.00;4949323;29;20051;-41
2022/01/12 01:54:15;;;;;;;10.20;6.20;;;0.70;79.00;;;1.10;61.22;99339.53;4948990;28;20058;-41
2022/01/12 01:56:43;;;;;;;7.83;5.97;;;0.70;79.00;;;1.14;61.11;99343.78;4966042;29;20035;-41
2022/01/12 01:59:11;;;;;;;9.77;6.07;;;0.70;78.60;;;1.17;61.31;99355.91;4949109;29;20051;-41
2022/01/12 02:01:44;;;;;;;10.40;6.70;;;0.80;78.30;;;1.19;61.50;99356.69;4948343;29;20055;-40
2022/01/12 02:04:12;;;;;;;11.87;8.13;;;0.80;78.30;;;1.18;61.32;99355.84;4948855;29;20047;-41
2022/01/12 02:06:40;;;;;;;11.93;8.30;;;0.70;78.20;;;1.09;61.03;99363.22;4964512;29;20063;-41
2022/01/12 02:09:08;;;;;;;9.10;6.53;;;0.60;77.80;;;1.00;60.89;99369.66;4965216;29;20047;-41
2022/01/12 02:11:53;;;;;;;9.53;6.77;;;0.50;78.20;;;0.89;61.22;99372.72;4942352;29;20055;-41
2022/01/12 02:14:28;;;;;;;9.43;6.83;;;0.40;79.40;;;0.90;61.17;99376.19;4949074;29;20290;-40
2022/01/12 02:17:02;;;;;;;10.37;6.10;;;0.40;79.80;;;0.91;61.60;99375.25;4965692;29;20043;-41
2022/01/12 02:36:24;;;;;;;8.73;5.97;;;0.30;80.00;;;0.77;61.11;99345.16;4948773;29;20051;-40
2022/01/12 02:41:41;;;;;;;8.67;5.80;;;0.30;80.00;;;0.73;61.77;99343.59;4965603;29;20112;-40
2022/01/12 02:55:10;;;;;;;10.73;7.13;;;0.40;79.90;;;0.81;61.43;99355.56;4965266;29;20054;-40
2022/01/12 02:57:38;;;;;;;9.40;6.00;;;0.40;79.60;;;0.81;61.72;99360.81;4965107;29;20039;-40
2022/01/12 03:00:11;;;;;;;8.13;5.90;;;0.40;79.40;;;0.79;62.14;99363.47;4965259;29;20051;-40
2022/01/12 03:02:41;;;;;;;8.75;5.55;;;0.40;79.40;;;0.80;62.02;99361.72;4965188;29;20334;-40
2022/01/12 03:07:49;;;;;;;9.47;6.27;;;0.40;79.60;;;0.74;61.44;99354.94;4946345;29;20055;-40
2022/01/12 03:10:18;;;;;;;8.70;5.57;;;0.30;79.80;;;0.72;61.46;99359.38;4947252;29;20059;-40
2022/01/12 03:12:46;;;;;;;11.07;6.00;;;0.30;80.20;;;0.72;61.20;99346.28;4965131;29;20050;-40
2022/01/12 03:15:17;;;;;;;9.57;6.50;;;0.20;79.80;;;0.70;61.54;99346.34;4948020;29;20059;-40
2022/01/12 03:17:44;;;;;;;10.60;6.87;;;0.20;79.90;;;0.68;61.72;99357.78;4946781;29;20051;-40
2022/01/12 03:20:14;;;;;;;10.07;6.87;;;0.20;80.50;;;0.68;62.19;99357.78;4947514;29;20053;-40
2022/01/12 03:22:43;;;;;;;9.93;6.27;;;0.20;80.30;;;0.63;61.77;99370.22;4965555;29;20070;-40
2022/01/12 03:25:11;;;;;;;10.20;5.87;;;0.20;80.20;;;0.57;62.32;99376.53;4965058;29;20049;-40
2022/01/12 03:27:39;;;;;;;10.23;6.80;;;0.10;80.60;;;0.52;61.51;99376.69;4964403;29;20334;-40
2022/01/12 03:30:07;;;;;;;11.90;7.20;;;0.10;80.80;;;0.48;62.13;99377.72;4964936;29;20051;-40
2022/01/12 03:32:43;;;;;;;8.57;6.03;;;0.00;81.30;;;0.49;61.95;99379.44;4963776;29;20063;-40
2022/01/12 03:35:24;;;;;;;10.33;6.80;;;0.10;81.90;;;0.49;62.50;99370.72;4963371;29;20059;-40
2022/01/12 03:40:39;;;;;;;13.53;7.60;;;0.00;81.20;;;0.47;62.60;99372.53;4947035;29;20047;-40
2022/01/12 03:43:07;;;;;;;12.77;6.83;;;0.00;81.50;;;0.46;62.50;99379.53;4947404;29;20249;-40
2022/01/12 03:45:35;;;;;;;9.73;6.53;;;0.00;81.50;;;0.46;62.26;99376.06;4947254;29;20059;-41
2022/01/12 03:48:04;;;;;;;14.20;8.00;;;0.00;81.60;;;0.43;62.08;99378.78;4963044;29;20059;-40
2022/01/12 03:50:32;;;;;;;14.67;7.47;;;-0.10;81.40;;;0.43;62.53;99377.03;4946850;29;20057;-40
2022/01/12 03:53:00;;;;;;;8.87;6.20;;;0.00;81.80;;;0.44;62.70;99389.22;4947363;29;20176;-40
2022/01/12 03:55:29;;;;;;;10.97;6.40;;;0.00;81.80;;;0.43;62.34;99394.50;4947259;29;20057;-40
2022/01/12 03:57:57;;;;;;;11.97;7.73;;;0.00;82.00;;;0.36;62.01;99391.25;4962638;29;20349;-40
2022/01/12 04:00:25;;;;;;;11.53;7.63;;;-0.10;81.80;;;0.30;61.99;99397.56;4962739;29;20081;-40
2022/01/12 04:02:53;;;;;;;10.33;7.33;;;-0.10;82.80;;;0.30;61.87;99399.34;4946755;29;20127;-39
2022/01/12 04:08:21;;;;;;;13.20;7.90;;;-0.20;82.60;;;0.30;62.68;99392.34;4946642;29;20058;-40
2022/01/12 04:11:02;;;;;;;11.67;6.77;;;-0.10;83.00;;;0.29;62.59;99380.16;4946805;29;20063;-40
2022/01/12 04:13:33;;;;;;;11.17;6.93;;;-0.10;82.60;;;0.27;62.56;99374.13;4963452;28;20073;-40
2022/01/12 04:16:06;;;;;;;14.60;8.40;;;0.00;83.10;;;0.27;62.77;99373.25;4946994;29;20059;-40
2022/01/12 04:18:35;;;;;;;12.27;7.63;;;-0.10;82.80;;;0.26;62.62;99375.00;4962321;29;20051;-39
2022/01/12 04:21:07;;;;;;;9.40;6.93;;;-0.20;82.80;;;0.27;62.74;99370.63;4943573;29;20047;-40
2022/01/12 04:23:37;;;;;;;12.73;7.33;;;-0.20;83.10;;;0.24;62.97;99376.84;4963292;28;20055;-40
2022/01/12 04:26:12;;;;;;;10.27;6.87;;;-0.20;82.80;;;0.23;62.57;99374.25;4963337;29;20051;-40
2022/01/12 04:28:43;;;;;;;11.37;6.80;;;-0.20;83.40;;;0.24;62.50;99382.06;4964057;29;20062;-40
2022/01/12 04:31:12;;;;;;;10.07;7.23;;;-0.20;83.50;;;0.28;63.33;99393.31;4946238;29;20059;-40
2022/01/12 04:33:46;;;;;;;11.07;6.32;;;-0.20;83.80;;;0.28;62.91;99388.06;4938867;29;20250;-40
2022/01/12 04:36:15;;;;;;;10.47;7.37;;;-0.20;83.60;;;0.27;63.05;99394.19;4963759;29;20345;-40
2022/01/12 04:38:45;;;;;;;13.23;7.10;;;-0.20;83.90;;;0.24;63.40;99395.16;4962532;29;20047;-40
2022/01/12 04:41:13;;;;;;;12.23;7.47;;;-0.20;84.20;;;0.25;63.29;99394.25;4962416;29;20076;-40
2022/01/12 04:43:45;;;;;;;12.03;7.17;;;-0.20;84.60;;;0.23;63.53;99408.31;4961957;29;20055;-40
2022/01/12 04:51:10;;;;;;;10.93;6.90;;;-0.30;85.10;;;0.20;63.17;99411.91;4962306;29;20058;-40
2022/01/12 04:53:38;;;;;;;10.43;7.10;;;-0.30;85.20;;;0.21;63.84;99407.50;4946509;29;20061;-40
2022/01/12 04:56:06;;;;;;;11.17;7.40;;;-0.30;85.00;;;0.19;63.09;99407.56;4962259;29;20061;-40
2022/01/12 04:58:34;;;;;;;12.60;6.20;;;-0.30;84.80;;;0.19;62.94;99424.16;4946061;29;20265;-40
2022/01/12 05:01:10;;;;;;;11.57;7.27;;;-0.30;84.80;;;0.18;62.92;99422.44;4962888;29;20230;-40
2022/01/12 05:06:44;;;;;;;12.17;8.33;;;-0.30;84.60;;;0.14;62.73;99427.84;4963315;29;20044;-40
2022/01/12 05:15:03;;;;;;;11.90;6.83;;;-0.50;85.70;;;0.06;63.55;99440.31;4945765;29;20062;-40
2022/01/12 05:17:31;;;;;;;13.60;7.37;;;-0.50;86.00;;;0.04;63.42;99436.88;4946044;29;20349;-36
2022/01/12 05:19:59;;;;;;;13.80;7.93;;;-0.50;86.00;;;0.01;63.52;99440.47;4945681;29;20349;-36
2022/01/12 05:22:27;;;;;;;12.93;7.63;;;-0.50;86.20;;;-0.01;63.01;99445.75;4963567;29;20069;-36
2022/01/12 05:24:55;;;;;;;11.47;7.40;;;-0.50;86.70;;;-0.03;63.69;99449.34;4945707;29;20047;-36
2022/01/12 05:27:29;;;;;;;11.07;7.97;;;-0.50;86.60;;;-0.05;63.69;99453.78;4945429;29;20061;-36
2022/01/12 05:29:57;;;;;;;12.57;7.50;;;-0.60;86.70;;;-0.04;63.79;99456.34;4963632;28;20057;-36
2022/01/12 05:32:26;;;;;;;11.37;8.33;;;-0.50;86.80;;;-0.04;63.22;99465.94;4948483;29;20063;-36
2022/01/12 05:35:01;;;;;;;12.23;7.63;;;-0.40;86.40;;;-0.04;63.13;99461.59;4949107;29;20051;-36
2022/01/12 05:37:28;;;;;;;14.33;8.73;;;-0.50;85.60;;;-0.04;63.12;99450.25;4965043;29;20057;-36
2022/01/12 05:40:00;;;;;;;14.60;8.67;;;-0.50;85.70;;;-0.05;63.00;99445.94;4949438;29;20051;-36
2022/01/12 05:42:33;;;;;;;15.70;9.63;;;-0.60;85.20;;;-0.09;63.05;99445.16;4949521;29;20053;-36
2022/01/12 05:45:04;;;;;;;12.47;7.77;;;-0.60;85.80;;;-0.12;63.16;99445.25;4964708;29;20181;-36
2022/01/12 05:50:14;;;;;;;18.50;12.57;;;-0.60;86.00;;;-0.16;63.84;99456.72;4965213;29;20054;-36
2022/01/12 05:52:42;;;;;;;13.50;9.03;;;-0.60;86.00;;;-0.17;63.57;99457.66;4966901;29;20053;-36
2022/01/12 05:55:12;;;;;;;14.03;9.20;;;-0.70;86.10;;;-0.15;64.01;99471.56;4966661;29;20331;-36
2022/01/12 05:57:41;;;;;;;13.00;8.37;;;-0.60;86.50;;;-0.14;63.30;99480.25;4948372;29;20049;-36
2022/01/12 06:00:16;;;;;;;13.23;9.33;;;-0.60;86.00;;;-0.18;63.30;99484.72;4965074;29;20073;-36
2022/01/12 06:02:51;;;;;;;14.00;8.30;;;-0.60;85.30;;;-0.20;63.25;99487.38;4949360;29;20057;-36
2022/01/12 06:05:22;;;;;;;15.10;9.37;;;-0.60;85.00;;;-0.19;63.12;99483.03;4965288;29;20051;-36
2022/01/12 06:07:52;;;;;;;11.27;7.57;;;-0.60;84.80;;;-0.21;63.03;99483.06;4948699;29;20230;-36
2022/01/12 06:10:22;;;;;;;12.90;7.73;;;-0.60;84.40;;;-0.25;63.35;99476.22;4948936;29;20065;-36
2022/01/12 06:12:52;;;;;;;12.43;8.03;;;-0.70;84.90;;;-0.28;63.00;99484.16;4964534;29;20128;-36
2022/01/12 06:15:20;;;;;;;13.47;9.07;;;-0.70;85.00;;;-0.36;63.15;99498.41;4948766;29;20054;-36
2022/01/12 06:17:48;;;;;;;15.77;10.27;;;-0.80;84.60;;;-0.36;63.15;99494.03;4948428;29;20086;-36
2022/01/12 06:20:17;;;;;;;19.00;10.03;;;-0.80;85.30;;;-0.37;63.17;99496.69;4964621;29;20055;-36
2022/01/12 06:22:59;;;;;;;35.27;16.60;;;-0.80;85.00;;;-0.37;63.79;99487.06;4964935;29;20055;-36
2022/01/12 06:25:27;;;;;;;25.57;12.97;;;-0.80;85.60;;;-0.37;63.29;99479.22;4949182;29;20191;-36
2022/01/12 06:28:08;;;;;;;22.83;12.70;;;-0.80;85.60;;;-0.39;63.81;99478.41;4948401;29;20349;-36
2022/01/12 06:33:23;;;;;;;57.27;30.37;;;-0.80;86.40;;;-0.36;63.47;99473.09;4965201;29;20047;-36
2022/01/12 06:35:51;;;;;;;76.03;41.47;;;-0.80;86.20;;;-0.35;64.10;99466.97;4948419;29;20222;-36
2022/01/12 06:38:19;;;;;;;60.57;32.60;;;-0.80;86.00;;;-0.32;63.99;99464.22;4965406;29;20337;-36
2022/01/12 06:40:46;;;;;;;52.37;35.37;;;-0.80;86.10;;;-0.30;64.23;99464.19;4947746;29;20047;-36
2022/01/12 06:43:14;;;;;;;31.63;22.53;;;-0.70;86.20;;;-0.28;63.46;99462.38;4964052;29;20053;-36
2022/01/12 06:45:43;;;;;;;21.20;15.43;;;-0.70;86.00;;;-0.26;63.77;99465.81;4965756;29;20049;-36
2022/01/12 06:48:11;;;;;;;25.47;16.90;;;-0.70;86.10;;;-0.23;64.18;99470.94;4947584;29;20203;-36
2022/01/12 06:50:39;;;;;;;18.37;12.80;;;-0.60;85.60;;;-0.21;63.92;99471.75;4965675;29;20365;-36
2022/01/12 06:53:07;;;;;;;19.63;11.83;;;-0.60;85.40;;;-0.22;64.05;99483.97;4947965;29;20272;-36
2022/01/12 06:55:35;;;;;;;35.50;16.87;;;-0.70;85.30;;;-0.24;64.08;99472.69;4947470;29;20371;-36
2022/01/12 06:58:03;;;;;;;44.60;25.07;;;-0.70;85.50;;;-0.24;63.65;99479.69;4947551;29;20368;-36
2022/01/12 07:00:31;;;;;;;63.57;29.77;;;-0.70;85.40;;;-0.25;63.48;99481.47;4965046;29;20051;-36
2022/01/12 07:03:01;;;;;;;37.47;17.37;;;-0.70;85.70;;;-0.26;63.43;99484.13;4948585;29;20127;-37
2022/01/12 07:05:36;;;;;;;61.83;28.87;;;-0.70;85.80;;;-0.27;63.97;99485.00;4947746;29;20051;-37
2022/01/12 07:08:05;;;;;;;60.03;28.67;;;-0.80;85.60;;;-0.27;63.67;99495.47;4964658;29;20073;-37
2022/01/12 07:10:38;;;;;;;54.72;26.63;;;-0.80;85.90;;;-0.27;64.02;99487.63;4947808;29;20047;-37
2022/01/12 07:13:22;;;;;;;87.38;35.88;;;-0.70;85.90;;;-0.28;63.72;99499.88;4947491;29;20047;-37
2022/01/12 07:15:56;;;;;;;;;;;-0.70;85.30;;;-0.33;63.28;99495.69;4965783;29;20055;-37
2022/01/12 07:18:26;;;;;;;75.40;34.90;;;-0.80;85.10;;;-0.35;64.11;99485.28;4947026;29;19918;-36
2022/01/12 07:20:54;;;;;;;26.43;15.73;;;-0.90;85.30;;;-0.36;64.14;99480.09;4962232;29;20360;-36
2022/01/12 07:23:23;;;;;;;27.30;13.97;;;-0.90;85.70;;;-0.37;63.68;99481.81;4963831;29;20061;-36
2022/01/12 07:25:51;;;;;;;18.00;11.67;;;-0.90;85.40;;;-0.37;63.55;99479.22;4964931;29;20049;-36
2022/01/12 07:28:20;;;;;;;21.40;11.70;;;-0.80;85.20;;;-0.40;63.71;99484.56;4964671;29;20051;-36
2022/01/12 07:30:49;;;;;;;24.20;13.27;;;-0.90;85.50;;;-0.37;63.63;99491.44;4964633;29;20047;-36
2022/01/12 07:33:18;;;;;;;61.17;30.03;;;-0.80;84.80;;;-0.37;63.56;99494.06;4964967;29;20051;-36
2022/01/12 07:35:46;;;;;;;36.97;24.00;;;-0.80;85.10;;;-0.38;63.98;99503.69;4964574;29;20051;-37
2022/01/12 07:38:13;;;;;;;21.13;13.60;;;-0.80;84.90;;;-0.37;63.69;99515.84;4964339;29;20278;-37
2022/01/12 07:40:41;;;;;;;16.70;10.00;;;-0.80;85.20;;;-0.35;64.38;99536.75;4964632;29;20047;-37
2022/01/12 07:43:11;;;;;;;16.47;9.43;;;-0.80;85.50;;;-0.32;63.61;99545.38;4963523;29;20051;-36
2022/01/12 07:45:40;;;;;;;12.70;8.10;;;-0.80;85.20;;;-0.30;63.55;99548.78;4944854;29;20059;-37
2022/01/12 07:48:08;;;;;;;16.67;8.93;;;-0.70;85.10;;;-0.29;63.44;99558.38;4945039;29;20049;-37
2022/01/12 07:50:35;;;;;;;13.93;9.03;;;-0.70;85.30;;;-0.27;64.53;99571.41;4945415;29;20048;-37
2022/01/12 07:53:03;;;;;;;12.87;8.70;;;-0.70;85.80;;;-0.21;63.67;99581.72;4944583;29;20065;-37
2022/01/12 07:55:31;;;;;;;13.17;9.00;;;-0.60;85.70;;;-0.18;63.77;99592.06;4945216;29;20051;-37
2022/01/12 07:57:59;;;;;;;15.07;8.47;;;-0.50;85.40;;;-0.18;64.28;99593.84;4943896;29;20069;-37
2022/01/12 08:00:27;;;;;;;14.23;8.83;;;-0.50;85.10;;;-0.19;63.91;99603.47;4944686;29;20062;-37
2022/01/12 08:02:55;;;;;;;13.83;8.90;;;-0.60;85.10;;;-0.16;64.22;99603.34;4945315;29;20051;-37
2022/01/12 08:05:24;;;;;;;16.33;10.20;;;-0.50;85.10;;;-0.14;64.36;99601.53;4944996;29;20051;-37
2022/01/12 08:07:54;;;;;;;15.97;10.03;;;-0.50;85.10;;;-0.14;63.54;99588.44;4944482;29;20047;-37
2022/01/12 08:10:22;;;;;;;15.00;9.83;;;-0.50;85.00;;;-0.15;64.01;99594.59;4945576;29;20348;-37
2022/01/12 08:12:50;;;;;;;16.57;9.93;;;-0.60;85.10;;;-0.13;63.58;99586.72;4945064;29;20074;-37
2022/01/12 08:15:18;;;;;;;17.63;10.33;;;-0.60;85.30;;;-0.12;63.49;99585.78;4945116;29;20046;-37
2022/01/12 08:17:46;;;;;;;15.73;10.57;;;-0.60;85.60;;;-0.12;63.94;99591.88;4944162;29;20067;-37
2022/01/12 08:20:18;;;;;;;14.77;9.70;;;-0.50;85.90;;;-0.09;64.08;99604.03;4944874;29;20056;-37
2022/01/12 08:22:46;;;;;;;15.37;9.70;;;-0.50;85.90;;;-0.06;64.43;99614.41;4944843;29;20065;-37
2022/01/12 08:25:14;;;;;;;16.33;9.97;;;-0.50;85.70;;;-0.05;64.58;99618.75;4944840;29;20060;-37
2022/01/12 08:27:42;;;;;;;17.97;9.93;;;-0.40;85.20;;;-0.03;63.99;99604.69;4944618;29;20048;-37
2022/01/12 08:30:19;;;;;;;13.97;9.40;;;-0.40;85.10;;;0.00;64.38;99598.53;4944039;29;20051;-37
2022/01/12 08:32:52;;;;;;;14.30;9.87;;;-0.30;85.30;;;0.03;64.52;99589.72;4927750;29;20048;-37
2022/01/12 08:35:20;;;;;;;17.27;10.27;;;-0.40;85.00;;;0.02;64.47;99588.88;4944491;29;20069;-37
2022/01/12 08:37:48;;;;;;;14.43;10.23;;;-0.40;85.40;;;0.07;64.24;99599.19;4944617;29;20044;-37
2022/01/12 08:40:18;;;;;;;16.03;9.73;;;-0.30;84.90;;;0.10;63.81;99607.81;4943998;29;20364;-37
2022/01/12 08:42:47;;;;;;;19.67;9.90;;;-0.20;84.60;;;0.12;64.02;99611.22;4937303;29;20056;-37
2022/01/12 08:45:17;;;;;;;15.67;10.13;;;-0.20;84.60;;;0.13;63.97;99599.84;4943846;29;20052;-37
2022/01/12 08:47:46;;;;;;;15.43;9.50;;;-0.20;84.00;;;0.12;63.62;99599.91;4936700;29;20296;-37
2022/01/12 08:50:14;;;;;;;20.83;11.30;;;-0.20;83.90;;;0.12;63.46;99589.44;4944650;29;20338;-37
2022/01/12 08:52:46;;;;;;;20.20;11.13;;;-0.20;83.90;;;0.14;63.55;99580.59;4944768;29;20372;-37
2022/01/12 08:55:17;;;;;;;22.17;11.93;;;-0.20;83.70;;;0.17;63.62;99587.50;4944663;29;20051;-37
2022/01/12 08:57:46;;;;;;;16.03;11.10;;;-0.20;83.60;;;0.19;63.77;99601.41;4936854;29;20063;-37
2022/01/12 09:00:15;;;;;;;16.87;11.83;;;-0.20;84.00;;;0.21;63.57;99596.13;4952452;29;20325;-37
2022/01/12 09:02:43;;;;;;;15.93;9.70;;;-0.20;83.80;;;0.20;63.88;99592.66;4962838;29;20077;-37
2022/01/12 09:05:13;;;;;;;19.47;11.63;;;-0.20;83.60;;;0.18;63.75;99590.09;4964507;28;20241;-37
2022/01/12 09:07:41;;;;;;;16.63;10.10;;;-0.20;84.10;;;0.17;64.51;99603.22;4963133;29;20130;-37
2022/01/12 09:10:11;;;;;;;18.03;11.33;;;-0.20;84.50;;;0.19;64.41;99617.13;4963426;29;20057;-37
2022/01/12 09:12:39;;;;;;;16.80;11.03;;;-0.20;84.30;;;0.22;64.31;99627.53;4966856;29;20051;-37
2022/01/12 09:15:14;;;;;;;20.17;11.10;;;-0.10;84.30;;;0.24;63.67;99633.56;4966880;29;20050;-37
2022/01/12 09:17:43;;;;;;;21.17;11.17;;;-0.10;84.20;;;0.26;63.98;99647.47;4962295;29;20051;-37
2022/01/12 09:20:11;;;;;;;20.40;12.43;;;-0.10;84.50;;;0.28;63.62;99650.06;4966914;29;20057;-37
2022/01/12 09:22:40;;;;;;;21.57;12.60;;;-0.10;84.30;;;0.32;64.48;99638.56;4967327;29;20050;-37
2022/01/12 09:25:10;;;;;;;17.67;11.07;;;0.00;84.10;;;0.35;64.32;99620.13;4966248;29;20055;-37
2022/01/12 09:27:39;;;;;;;17.80;10.93;;;0.10;84.10;;;0.41;64.12;99619.94;4966897;29;20051;-37
2022/01/12 09:30:11;;;;;;;18.27;10.93;;;0.10;84.00;;;0.47;64.17;99643.31;4966672;29;20368;-37
2022/01/12 09:32:39;;;;;;;15.97;10.37;;;0.30;83.50;;;0.53;64.59;99637.88;4966902;29;20061;-37
2022/01/12 09:35:08;;;;;;;19.10;10.73;;;0.30;82.80;;;0.56;64.47;99627.31;4966834;29;20253;-37
2022/01/12 09:37:36;;;;;;;18.67;10.20;;;0.30;83.00;;;0.59;63.79;99642.94;4965703;29;20047;-37
2022/01/12 09:40:05;;;;;;;17.73;11.23;;;0.30;82.30;;;0.59;64.03;99653.41;4965830;29;20266;-37
2022/01/12 09:42:33;;;;;;;16.73;10.73;;;0.30;82.70;;;0.60;63.80;99659.50;4966748;29;20055;-38
2022/01/12 09:45:02;;;;;;;18.73;11.17;;;0.30;82.80;;;0.56;64.35;99658.78;4966883;29;20055;-38
2022/01/12 09:47:30;;;;;;;17.10;10.93;;;0.20;82.80;;;0.58;63.60;99675.31;4965986;29;20051;-38
2022/01/12 09:49:58;;;;;;;19.53;11.13;;;0.20;82.70;;;0.61;63.79;99670.88;4965133;29;20065;-38
2022/01/12 09:52:26;;;;;;;18.60;11.13;;;0.20;82.80;;;0.65;63.48;99685.59;4966696;29;20054;-38
2022/01/12 09:54:54;;;;;;;17.50;11.20;;;0.30;83.20;;;0.68;64.33;99683.72;4966550;29;20047;-38
2022/01/12 09:57:21;;;;;;;16.93;10.67;;;0.40;82.80;;;0.71;63.62;99677.53;4966107;29;20085;-37
2022/01/12 09:59:49;;;;;;;21.37;14.13;;;0.40;81.80;;;0.73;63.37;99683.56;4966513;29;20049;-38
2022/01/12 10:02:20;;;;;;;21.83;12.23;;;0.40;81.60;;;0.73;63.91;99684.41;4966569;29;20051;-38
2022/01/12 10:04:58;;;;;;;15.77;10.33;;;0.40;81.30;;;0.76;64.03;99679.09;4966588;29;20047;-38
2022/01/12 10:07:26;;;;;;;17.13;10.10;;;0.50;81.70;;;0.81;63.53;99667.59;4964221;29;20356;-38
2022/01/12 10:10:05;;;;;;;19.17;9.83;;;0.50;81.20;;;0.82;63.92;99674.56;4966404;29;20256;-38
2022/01/12 10:12:34;;;;;;;19.37;10.23;;;0.50;80.50;;;0.83;63.36;99679.72;4966291;28;20063;-38
2022/01/12 10:15:10;;;;;;;14.47;9.30;;;0.50;80.50;;;0.83;63.36;99684.13;4964780;29;20059;-38
2022/01/12 10:17:44;;;;;;;15.87;10.37;;;0.50;79.90;;;0.84;63.36;99678.00;4965853;29;20057;-38
2022/01/12 10:20:18;;;;;;;15.88;10.38;;;0.50;80.40;;;0.84;63.85;99663.09;4965798;29;20051;-38
2022/01/12 10:23:10;;;;;;;18.63;11.52;;;0.50;80.90;;;0.87;63.14;99673.47;4956554;29;20047;-38
2022/01/12 10:25:40;;;;;;;19.07;11.90;;;0.50;81.00;;;0.91;63.48;99677.75;4966086;29;20058;-38
2022/01/12 10:28:21;;;;;;;18.50;11.10;;;0.60;81.30;;;0.92;63.60;99691.69;4948249;29;20057;-38
2022/01/12 10:31:00;;;;;;;20.30;12.20;;;0.60;80.90;;;0.93;63.98;99688.16;4958968;29;20276;-38
2022/01/12 10:33:33;;;;;;;17.03;10.97;;;0.70;81.20;;;0.93;63.88;99693.41;4965690;29;20085;-38
2022/01/12 10:36:06;;;;;;;18.10;11.33;;;0.60;80.90;;;0.93;63.12;99693.41;4966064;29;20052;-38
2022/01/12 10:38:34;;;;;;;20.80;10.57;;;0.70;80.80;;;0.90;63.41;99697.00;4965238;29;20336;-38
2022/01/12 10:41:05;;;;;;;20.27;10.77;;;0.60;80.70;;;0.86;63.52;99702.41;4965192;29;20241;-38
2022/01/12 10:43:36;;;;;;;17.57;10.27;;;0.60;80.30;;;0.83;63.58;99702.47;4965885;29;20051;-38
2022/01/12 10:46:12;;;;;;;17.40;10.90;;;0.50;81.30;;;0.89;64.11;99704.91;4965406;29;20053;-38
2022/01/12 10:48:52;;;;;;;18.57;11.40;;;0.60;81.40;;;0.95;63.43;99696.81;4964864;29;20054;-38
2022/01/12 10:51:27;;;;;;;17.53;10.27;;;0.70;81.40;;;1.02;63.57;99708.00;4965354;29;20055;-37
2022/01/12 10:54:04;;;;;;;16.73;10.83;;;0.70;81.10;;;1.04;63.17;99704.41;4965368;29;20112;-38
2022/01/12 10:56:32;;;;;;;17.50;10.27;;;0.80;80.40;;;1.06;63.89;99696.47;4964378;29;20063;-38
2022/01/12 10:59:00;;;;;;;19.27;11.33;;;0.80;80.20;;;1.11;63.66;99699.81;4965550;29;20046;-38
2022/01/12 11:01:29;;;;;;;18.50;10.57;;;0.90;80.20;;;1.15;63.58;99693.56;4964893;29;20226;-38
2022/01/12 11:03:58;;;;;;;16.30;11.10;;;0.90;79.80;;;1.19;63.13;99689.91;4965451;29;20257;-37
2022/01/12 11:06:27;;;;;;;18.80;11.37;;;1.00;79.80;;;1.23;63.62;99685.44;4964770;29;20043;-37
2022/01/12 11:08:56;;;;;;;17.13;10.40;;;1.00;79.10;;;1.26;63.12;99685.31;4964696;29;20055;-37
2022/01/12 11:11:26;;;;;;;16.77;11.67;;;1.00;79.10;;;1.28;63.78;99684.34;4947970;29;20074;-37
2022/01/12 11:13:55;;;;;;;21.33;13.07;;;1.10;79.40;;;1.33;63.48;99673.69;4964385;29;20383;-37
2022/01/12 11:16:26;;;;;;;16.70;11.50;;;1.10;79.00;;;1.33;63.05;99677.16;4964545;29;20060;-37
2022/01/12 11:18:56;;;;;;;17.63;11.07;;;1.10;79.20;;;1.34;63.23;99678.03;4965208;29;20383;-37
2022/01/12 11:21:49;;;;;;;21.30;11.80;;;1.10;79.70;;;1.33;63.41;99673.69;4964663;29;20047;-37
2022/01/12 11:24:18;;;;;;;20.07;12.50;;;1.10;80.00;;;1.34;63.63;99668.41;4949869;29;20053;-37
2022/01/12 11:26:51;;;;;;;17.27;12.10;;;1.10;80.30;;;1.38;63.59;99663.91;4964169;28;20051;-37
2022/01/12 11:29:29;;;;;;;19.00;11.27;;;1.10;80.20;;;1.41;63.23;99661.16;4963675;29;20058;-37
2022/01/12 11:32:09;;;;;;;20.40;12.07;;;1.10;80.00;;;1.44;63.46;99661.06;4964823;29;20051;-37
2022/01/12 11:34:37;;;;;;;21.87;12.67;;;1.20;80.00;;;1.49;63.32;99653.00;4963957;29;20077;-37
2022/01/12 11:37:17;;;;;;;17.63;10.83;;;1.20;80.00;;;1.52;63.17;99637.16;4963467;29;20063;-37
2022/01/12 11:39:44;;;;;;;14.27;9.87;;;1.30;79.50;;;1.54;63.26;99628.31;4964301;29;20059;-37
2022/01/12 11:42:12;;;;;;;20.10;11.33;;;1.30;79.10;;;1.54;62.86;99620.44;4964309;29;20067;-37
2022/01/12 11:44:40;;;;;;;17.03;11.17;;;1.30;79.00;;;1.57;63.30;99624.69;4964037;29;20051;-37
2022/01/12 11:47:15;;;;;;;18.37;10.37;;;1.30;79.30;;;1.61;62.91;99620.19;4963554;29;20047;-37
2022/01/12 11:49:47;;;;;;;16.23;9.77;;;1.30;78.50;;;1.61;63.15;99612.31;4964629;29;20047;-37
2022/01/12 11:52:22;;;;;;;16.77;10.37;;;1.40;78.50;;;1.64;63.20;99604.34;4964355;29;20384;-37
2022/01/12 11:54:53;;;;;;;17.33;10.80;;;1.40;78.30;;;1.68;62.79;99606.78;4963351;29;20061;-37
2022/01/12 11:57:35;;;;;;;15.50;10.47;;;1.40;78.50;;;1.72;62.81;99591.78;4947115;29;20055;-37